This is the latest recevied weather packets stored in our database for station/object OK1TBF-6. If no packets are shown the sender has not sent any weather packets the latest 10 day(s).
| Time | Temp. | Humidity | Pressure | Rain* | Wind** | Luminosity | Snow |
|---|---|---|---|---|---|---|---|
| 1777423572 | 3.89° C | 46% | 1014.2 hPa | 0 mm | - | - | - |
| 1777423273 | 3.89° C | 46% | 1014.2 hPa | 0 mm | - | - | - |
| 1777416073 | 6.11° C | 39% | 1014 hPa | 0 mm | - | - | - |
| 1777412166 | 6.11° C | 39% | 1013.9 hPa | 0 mm | - | - | - |
| 1777411865 | 6.67° C | 37% | 1014 hPa | 0 mm | - | - | - |
| 1777409465 | 6.67° C | 36% | 1013.7 hPa | 0 mm | - | - | - |
| 1777408265 | 6.67° C | 36% | 1013.6 hPa | 0 mm | - | - | - |
| 1777397763 | 10.56° C | 33% | 1012.1 hPa | 0 mm | - | - | - |
| 1777392962 | 12.22° C | 35% | 1011.7 hPa | 0 mm | - | - | - |
| 1777392661 | 12.22° C | 36% | 1011.9 hPa | 0 mm | - | - | - |
| 1777391163 | 12.78° C | 37% | 1011.7 hPa | 0 mm | - | - | - |
| 1777386661 | 14.44° C | 40% | 1012 hPa | 0 mm | - | - | - |
| 1777386061 | 13.89° C | 38% | 1012 hPa | 0 mm | - | - | - |
| 1777382160 | 15° C | 39% | 1012.4 hPa | 0 mm | - | - | - |
| 1777381861 | 13.89° C | 42% | 1011.9 hPa | 0 mm | - | - | - |
| 1777377060 | 13.89° C | 39% | 1012.4 hPa | 0 mm | - | - | - |
| 1777373160 | 13.33° C | 39% | 1012.5 hPa | 0 mm | - | - | - |
| 1777371959 | 13.33° C | 40% | 1012.7 hPa | 0 mm | - | - | - |
| 1777371658 | 13.33° C | 39% | 1012.6 hPa | 0 mm | - | - | - |
| 1777370759 | 13.33° C | 40% | 1012.5 hPa | 0 mm | - | - | - |
| 1777369559 | 14.44° C | 38% | 1012.5 hPa | 0 mm | - | - | - |
| 1777365358 | 11.67° C | 42% | 1012.7 hPa | 0 mm | - | - | - |
| 1777364458 | 11.67° C | 46% | 1012.5 hPa | 0 mm | - | - | - |
| 1777361157 | 10° C | 50% | 1012.6 hPa | 0 mm | - | - | - |
| 1777359358 | 8.33° C | 52% | 1012.5 hPa | 0 mm | - | - | - |
* Rain latest hour (hover to see other rain measurements)
** Current wind speed in m/s (hover to see current wind gust speed)